createdAt,value
2019-06-08T00:02:27.804Z,19.87
2019-06-08T00:04:59.199Z,19.71
2019-06-08T00:07:30.417Z,19.64
2019-06-08T00:10:01.564Z,19.59
2019-06-08T00:12:32.773Z,19.49
2019-06-08T00:15:05.632Z,19.41
2019-06-08T00:17:38.949Z,19.51
2019-06-08T00:20:09.935Z,19.51
2019-06-08T00:22:41.155Z,19.53
2019-06-08T00:25:13.793Z,19.40
2019-06-08T00:27:44.935Z,19.39
2019-06-08T00:30:16.128Z,19.30
2019-06-08T00:32:47.329Z,19.28
2019-06-08T00:35:18.683Z,19.23
2019-06-08T00:37:49.893Z,19.17
2019-06-08T00:40:21.134Z,19.24
2019-06-08T00:42:52.325Z,19.27
2019-06-08T00:45:23.635Z,19.27
2019-06-08T00:47:54.957Z,19.29
2019-06-08T00:50:27.011Z,19.32
2019-06-08T00:52:58.228Z,19.26
2019-06-08T00:55:29.916Z,19.17
2019-06-08T00:58:01.200Z,19.15
2019-06-08T01:00:32.383Z,19.17
2019-06-08T01:03:03.666Z,19.11
2019-06-08T01:05:34.834Z,19.09
2019-06-08T01:08:06.127Z,19.08
2019-06-08T01:10:37.329Z,18.98
2019-06-08T01:13:08.958Z,18.93
2019-06-08T01:15:40.241Z,18.99
2019-06-08T01:18:11.553Z,19.04
2019-06-08T01:20:42.844Z,19.00
2019-06-08T01:23:14.174Z,18.97
2019-06-08T01:25:45.351Z,19.00
2019-06-08T01:28:16.670Z,19.07
2019-06-08T01:30:47.968Z,19.05
2019-06-08T01:33:20.406Z,19.09
2019-06-08T01:35:51.670Z,19.17
2019-06-08T01:38:23.027Z,19.22
2019-06-08T01:40:54.149Z,19.25
2019-06-08T01:43:25.838Z,19.18
2019-06-08T01:45:57.134Z,19.26
2019-06-08T01:48:28.442Z,19.28
2019-06-08T01:51:00.703Z,19.32
2019-06-08T01:53:33.014Z,19.31
2019-06-08T01:56:04.400Z,19.31
2019-06-08T01:58:35.903Z,19.32
2019-06-08T02:01:07.563Z,19.28
2019-06-08T02:03:38.978Z,19.29
2019-06-08T02:06:10.135Z,19.25
2019-06-08T02:08:41.460Z,19.22
2019-06-08T02:11:12.617Z,19.19
2019-06-08T02:13:43.879Z,19.29
2019-06-08T02:16:15.174Z,19.32
2019-06-08T02:18:50.880Z,19.33
2019-06-08T02:21:19.366Z,19.31
2019-06-08T02:23:50.586Z,19.35
2019-06-08T02:26:21.751Z,19.34
2019-06-08T02:28:52.951Z,19.35
2019-06-08T02:31:24.157Z,19.33
2019-06-08T02:33:55.495Z,19.24
2019-06-08T02:36:28.659Z,19.23
2019-06-08T02:39:00.527Z,19.25
2019-06-08T02:41:33.063Z,19.33
2019-06-08T02:44:05.221Z,19.36
2019-06-08T02:46:38.215Z,19.44
2019-06-08T02:49:09.428Z,19.51
2019-06-08T02:51:41.719Z,19.63
2019-06-08T02:54:13.447Z,19.66
2019-06-08T02:56:46.054Z,19.58
2019-06-08T02:59:20.291Z,19.68
2019-06-08T03:01:52.980Z,19.73
2019-06-08T03:04:26.287Z,19.86
2019-06-08T03:06:59.515Z,20.00
2019-06-08T03:09:34.632Z,20.06
2019-06-08T03:12:05.677Z,20.17
2019-06-08T03:14:39.644Z,20.07
2019-06-08T03:17:11.325Z,20.22
2019-06-08T03:19:42.885Z,20.44
2019-06-08T03:22:14.072Z,20.54
2019-06-08T03:24:45.297Z,20.62
2019-06-08T03:27:16.509Z,20.76
2019-06-08T03:29:47.717Z,20.76
2019-06-08T03:32:18.817Z,20.92
2019-06-08T03:34:55.722Z,21.02
2019-06-08T03:37:22.894Z,21.16
2019-06-08T03:39:54.125Z,21.13
2019-06-08T03:42:25.272Z,21.27
2019-06-08T03:44:56.422Z,21.35
2019-06-08T03:47:27.594Z,21.46
2019-06-08T03:49:58.796Z,21.53
2019-06-08T03:52:30.945Z,21.55
2019-06-08T03:55:02.096Z,21.60
2019-06-08T03:57:33.247Z,21.70
2019-06-08T04:00:13.338Z,21.73
2019-06-08T04:02:42.703Z,21.82
2019-06-08T04:05:14.905Z,21.88
2019-06-08T04:07:46.571Z,21.92
2019-06-08T04:10:17.853Z,21.90
2019-06-08T04:12:50.162Z,21.97
2019-06-08T04:15:21.558Z,22.06
2019-06-08T04:17:52.712Z,22.03
2019-06-08T04:20:23.935Z,21.97
2019-06-08T04:22:55.314Z,22.02
2019-06-08T04:25:26.553Z,22.06
2019-06-08T04:27:57.864Z,22.17
2019-06-08T04:30:29.094Z,22.10
2019-06-08T04:33:00.267Z,22.16
2019-06-08T04:35:31.491Z,22.23
2019-06-08T04:38:02.673Z,22.26
2019-06-08T04:40:33.874Z,22.34
2019-06-08T04:43:05.447Z,22.37
2019-06-08T04:45:38.614Z,22.52
2019-06-08T04:48:10.009Z,22.57
2019-06-08T04:50:42.917Z,22.76
2019-06-08T04:53:15.767Z,22.85
2019-06-08T04:55:47.275Z,22.76
2019-06-08T04:58:19.950Z,22.82
2019-06-08T05:00:51.215Z,22.73
2019-06-08T05:03:22.381Z,22.83
2019-06-08T05:05:53.687Z,22.87
2019-06-08T05:08:24.846Z,23.07
2019-06-08T05:10:56.051Z,23.26
2019-06-08T05:13:27.210Z,23.26
2019-06-08T05:15:58.416Z,23.32
2019-06-08T05:18:29.516Z,23.36
2019-06-08T05:21:00.745Z,23.33
2019-06-08T05:23:31.992Z,23.43
2019-06-08T05:26:03.197Z,23.42
2019-06-08T05:28:34.379Z,23.44
2019-06-08T05:31:05.597Z,23.52
2019-06-08T05:33:36.814Z,23.62
2019-06-08T05:36:08.019Z,23.79
2019-06-08T05:38:39.500Z,23.80
2019-06-08T05:41:10.726Z,24.03
2019-06-08T05:43:41.868Z,24.30
2019-06-08T05:46:12.993Z,24.57
2019-06-08T05:48:44.139Z,24.75
2019-06-08T05:51:15.331Z,24.86
2019-06-08T05:53:47.910Z,24.72
2019-06-08T05:56:19.185Z,24.70
2019-06-08T05:58:50.573Z,24.91
2019-06-08T06:01:21.748Z,24.92
2019-06-08T06:03:52.876Z,25.03
2019-06-08T06:06:24.180Z,25.07
2019-06-08T06:08:55.347Z,25.28
2019-06-08T06:11:26.569Z,25.47
2019-06-08T06:13:57.805Z,25.26
2019-06-08T06:16:29.019Z,25.49
2019-06-08T06:19:00.221Z,25.69
2019-06-08T06:21:31.430Z,25.82
2019-06-08T06:24:02.599Z,25.94
2019-06-08T06:26:33.839Z,26.05
2019-06-08T06:29:05.055Z,25.85
2019-06-08T06:31:36.262Z,25.78
2019-06-08T06:34:07.449Z,25.86
2019-06-08T06:36:38.648Z,26.02
2019-06-08T06:39:09.837Z,26.26
2019-06-08T06:41:41.874Z,26.32
2019-06-08T06:44:13.117Z,26.38
2019-06-08T06:46:44.321Z,26.63
2019-06-08T06:49:15.536Z,26.78
2019-06-08T06:51:46.827Z,26.89
2019-06-08T06:54:18.929Z,27.09
2019-06-08T06:56:50.148Z,27.22
2019-06-08T06:59:21.295Z,27.21
2019-06-08T07:01:57.264Z,27.13
2019-06-08T07:04:25.914Z,27.14
2019-06-08T07:06:57.211Z,27.35
2019-06-08T07:09:28.422Z,27.35
2019-06-08T07:11:59.649Z,27.36
2019-06-08T07:14:30.827Z,27.34
2019-06-08T07:17:02.037Z,27.44
2019-06-08T07:19:33.189Z,27.59
2019-06-08T07:22:04.428Z,27.73
2019-06-08T07:24:35.530Z,28.02
2019-06-08T07:27:07.606Z,27.88
2019-06-08T07:29:38.794Z,27.87
2019-06-08T07:32:10.017Z,27.90
2019-06-08T07:34:41.340Z,27.93
2019-06-08T07:37:12.605Z,27.84
2019-06-08T07:39:43.732Z,28.00
2019-06-08T07:42:14.930Z,28.22
2019-06-08T07:44:46.851Z,28.39
2019-06-08T07:47:18.052Z,28.36
2019-06-08T07:49:49.378Z,28.18
2019-06-08T07:52:20.623Z,28.36
2019-06-08T07:54:53.088Z,28.64
2019-06-08T07:57:24.671Z,28.72
2019-06-08T07:59:56.396Z,28.88
2019-06-08T08:02:27.729Z,29.01
2019-06-08T08:04:58.942Z,28.94
2019-06-08T08:07:30.178Z,28.89
2019-06-08T08:10:01.246Z,29.05
2019-06-08T08:12:32.526Z,28.96
2019-06-08T08:15:05.476Z,28.76
2019-06-08T08:17:39.184Z,28.72
2019-06-08T08:20:11.856Z,29.00
2019-06-08T08:22:43.089Z,29.13
2019-06-08T08:25:14.335Z,29.21
2019-06-08T08:27:47.827Z,29.36
2019-06-08T08:30:20.229Z,29.24
2019-06-08T08:32:53.287Z,29.26
2019-06-08T08:35:24.642Z,29.34
2019-06-08T08:38:00.474Z,29.50
2019-06-08T08:40:28.730Z,29.73
2019-06-08T08:43:01.594Z,30.10
2019-06-08T08:45:32.904Z,30.03
2019-06-08T08:48:20.717Z,30.19
2019-06-08T08:50:38.313Z,30.46
2019-06-08T08:53:09.611Z,30.65
2019-06-08T08:55:41.682Z,30.69
2019-06-08T08:58:12.895Z,30.51
2019-06-08T09:00:44.083Z,30.70
2019-06-08T09:03:28.492Z,30.68
2019-06-08T09:05:48.419Z,30.83
2019-06-08T09:08:23.165Z,30.91
2019-06-08T09:10:53.403Z,30.86
2019-06-08T09:13:24.779Z,31.04
2019-06-08T09:15:55.927Z,31.22
2019-06-08T09:18:28.718Z,31.25
2019-06-08T09:21:02.327Z,31.29
2019-06-08T09:23:32.792Z,31.08
2019-06-08T09:26:09.236Z,31.31
2019-06-08T09:28:38.844Z,30.97
2019-06-08T09:31:12.815Z,30.93
2019-06-08T09:33:42.715Z,31.20
2019-06-08T09:36:13.869Z,31.21
2019-06-08T09:38:47.782Z,31.12
2019-06-08T09:41:18.670Z,30.62
2019-06-08T09:43:49.891Z,30.77
2019-06-08T09:46:21.061Z,30.77
2019-06-08T09:48:54.020Z,30.90
2019-06-08T09:51:25.151Z,31.10
2019-06-08T09:54:00.401Z,30.99
2019-06-08T09:56:30.108Z,31.04
2019-06-08T09:59:04.100Z,31.25
2019-06-08T10:01:34.189Z,31.18
2019-06-08T10:04:08.541Z,31.33
2019-06-08T10:06:40.475Z,31.52
2019-06-08T10:09:11.418Z,31.37
2019-06-08T10:11:42.517Z,31.30
2019-06-08T10:14:13.740Z,31.35
2019-06-08T10:16:47.677Z,31.05
2019-06-08T10:19:18.643Z,31.13
2019-06-08T10:21:49.982Z,31.35
2019-06-08T10:24:21.177Z,31.64
2019-06-08T10:26:52.344Z,31.70
2019-06-08T10:29:23.472Z,31.47
2019-06-08T10:31:55.208Z,31.75
2019-06-08T10:34:29.689Z,31.41
2019-06-08T10:37:06.444Z,30.93
2019-06-08T10:39:33.808Z,31.55
2019-06-08T10:42:07.431Z,31.85
2019-06-08T10:44:38.296Z,32.12
2019-06-08T10:47:11.810Z,31.82
2019-06-08T10:49:42.435Z,32.17
2019-06-08T10:52:13.608Z,32.29
2019-06-08T10:54:44.836Z,32.54
2019-06-08T10:57:18.228Z,32.34
2019-06-08T10:59:49.658Z,31.72
2019-06-08T11:02:20.830Z,31.42
2019-06-08T11:04:52.097Z,30.78
2019-06-08T11:07:23.257Z,30.71
2019-06-08T11:09:54.538Z,30.96
2019-06-08T11:12:28.159Z,31.49
2019-06-08T11:14:59.937Z,30.92
2019-06-08T11:17:31.480Z,30.74
2019-06-08T11:20:04.384Z,30.42
2019-06-08T11:22:35.575Z,30.32
2019-06-08T11:25:15.456Z,30.29
2019-06-08T11:27:41.177Z,30.70
2019-06-08T11:30:20.380Z,30.88
2019-06-08T11:32:47.925Z,31.13
2019-06-08T11:35:18.664Z,31.42
2019-06-08T11:37:49.773Z,31.37
2019-06-08T11:40:21.078Z,31.96
2019-06-08T11:42:52.222Z,32.16
2019-06-08T11:45:23.535Z,32.39
2019-06-08T11:47:54.692Z,32.64
2019-06-08T11:50:34.533Z,32.59
2019-06-08T11:53:07.821Z,32.91
2019-06-08T11:55:38.778Z,33.11
2019-06-08T11:58:12.422Z,33.57
2019-06-08T12:01:00.737Z,33.33
2019-06-08T12:03:30.794Z,33.41
2019-06-08T12:06:02.238Z,32.90
2019-06-08T12:08:33.395Z,32.81
2019-06-08T12:11:06.151Z,33.34
2019-06-08T12:13:37.651Z,33.27
2019-06-08T12:16:14.868Z,32.75
2019-06-08T12:18:41.732Z,33.02
2019-06-08T12:21:14.252Z,33.33
2019-06-08T12:23:45.696Z,33.32
2019-06-08T12:26:16.891Z,33.75
2019-06-08T12:28:48.657Z,33.75
2019-06-08T12:31:22.490Z,33.82
2019-06-08T12:33:52.866Z,33.80
2019-06-08T12:36:24.071Z,33.70
2019-06-08T12:38:55.233Z,34.01
2019-06-08T12:41:28.912Z,33.82
2019-06-08T12:43:59.330Z,33.55
2019-06-08T12:46:30.544Z,33.42
2019-06-08T12:49:01.713Z,32.92
2019-06-08T12:51:32.933Z,32.90
2019-06-08T12:54:04.380Z,33.11
2019-06-08T12:56:37.680Z,33.37
2019-06-08T12:59:12.985Z,33.42
2019-06-08T13:01:41.561Z,33.23
2019-06-08T13:04:13.780Z,32.94
2019-06-08T13:06:45.038Z,32.33
2019-06-08T13:09:18.906Z,32.17
2019-06-08T13:11:50.701Z,32.60
2019-06-08T13:14:22.024Z,32.93
2019-06-08T13:16:53.318Z,32.62
2019-06-08T13:19:24.484Z,32.45
2019-06-08T13:21:55.714Z,32.54
2019-06-08T13:24:28.506Z,32.38
2019-06-08T13:26:59.825Z,32.28
2019-06-08T13:29:31.010Z,32.53
2019-06-08T13:32:02.264Z,32.33
2019-06-08T13:34:33.398Z,32.37
2019-06-08T13:37:04.628Z,32.58
2019-06-08T13:39:35.879Z,32.40
2019-06-08T13:42:07.741Z,31.85
2019-06-08T13:44:39.155Z,31.77
2019-06-08T13:47:11.161Z,31.81
2019-06-08T13:49:43.172Z,31.89
2019-06-08T13:52:15.664Z,31.57
2019-06-08T13:54:48.013Z,31.93
2019-06-08T13:57:21.896Z,31.99
2019-06-08T13:59:52.182Z,31.33
2019-06-08T14:02:28.540Z,31.19
2019-06-08T14:04:58.967Z,31.49
2019-06-08T14:07:34.357Z,31.90
2019-06-08T14:10:02.687Z,31.92
2019-06-08T14:12:34.016Z,31.75
2019-06-08T14:15:08.620Z,31.24
2019-06-08T14:17:39.394Z,30.96
2019-06-08T14:20:10.540Z,30.71
2019-06-08T14:22:41.747Z,30.63
2019-06-08T14:25:12.910Z,30.60
2019-06-08T14:27:44.134Z,30.66
2019-06-08T14:30:15.298Z,30.78
2019-06-08T14:32:47.885Z,30.72
2019-06-08T14:35:22.325Z,30.67
2019-06-08T14:37:52.047Z,30.53
2019-06-08T14:40:23.450Z,30.40
2019-06-08T14:42:54.663Z,30.27
2019-06-08T14:45:28.888Z,30.20
2019-06-08T14:47:58.873Z,30.15
2019-06-08T14:50:31.257Z,29.79
2019-06-08T14:53:02.688Z,29.55
2019-06-08T14:55:34.338Z,29.50
2019-06-08T14:58:05.578Z,29.58
2019-06-08T15:00:38.032Z,29.44
2019-06-08T15:03:09.620Z,29.47
2019-06-08T15:05:40.797Z,29.38
2019-06-08T15:08:11.995Z,29.48
2019-06-08T15:10:43.161Z,29.51
2019-06-08T15:13:14.484Z,29.39
2019-06-08T15:15:45.671Z,29.46
2019-06-08T15:18:18.584Z,29.52
2019-06-08T15:20:49.768Z,29.39
2019-06-08T15:23:22.863Z,29.28
2019-06-08T15:25:53.848Z,29.24
2019-06-08T15:28:25.081Z,29.04
2019-06-08T15:30:59.807Z,28.97
2019-06-08T15:33:32.073Z,28.94
2019-06-08T15:36:02.063Z,28.91
2019-06-08T15:38:33.551Z,28.91
2019-06-08T15:41:04.729Z,28.90
2019-06-08T15:43:37.652Z,28.82
2019-06-08T15:46:08.858Z,28.66
2019-06-08T15:48:40.114Z,28.60
2019-06-08T15:51:11.281Z,28.61
2019-06-08T15:53:42.515Z,28.51
2019-06-08T15:56:13.598Z,28.59
2019-06-08T15:58:44.827Z,28.53
2019-06-08T16:01:16.008Z,28.49
2019-06-08T16:03:47.228Z,28.52
2019-06-08T16:06:18.481Z,28.43
2019-06-08T16:08:49.682Z,28.41
2019-06-08T16:11:20.834Z,28.41
2019-06-08T16:13:52.135Z,28.29
2019-06-08T16:16:23.312Z,28.30
2019-06-08T16:18:54.458Z,28.17
2019-06-08T16:21:25.641Z,28.06
2019-06-08T16:23:56.872Z,28.07
2019-06-08T16:26:28.014Z,28.04
2019-06-08T16:28:59.286Z,28.08
2019-06-08T16:31:31.073Z,27.95
2019-06-08T16:34:02.359Z,27.97
2019-06-08T16:36:33.549Z,27.86
2019-06-08T16:39:07.469Z,27.97
2019-06-08T16:41:38.604Z,27.93
2019-06-08T16:44:09.832Z,27.86
2019-06-08T16:46:40.993Z,27.86
2019-06-08T16:49:12.221Z,27.81
2019-06-08T16:51:43.375Z,27.74
2019-06-08T16:54:14.579Z,27.66
2019-06-08T16:56:45.765Z,27.38
2019-06-08T16:59:16.981Z,27.23
2019-06-08T17:01:48.147Z,27.25
2019-06-08T17:04:19.319Z,27.41
2019-06-08T17:06:50.510Z,27.32
2019-06-08T17:09:21.744Z,27.25
2019-06-08T17:11:53.038Z,27.27
2019-06-08T17:14:25.275Z,27.20
2019-06-08T17:16:56.604Z,26.82
2019-06-08T17:19:27.870Z,26.80
2019-06-08T17:21:59.037Z,26.69
2019-06-08T17:24:30.391Z,26.52
2019-06-08T17:27:01.522Z,26.37
2019-06-08T17:29:32.846Z,26.46
2019-06-08T17:32:04.034Z,26.35
2019-06-08T17:34:36.526Z,26.26
2019-06-08T17:37:07.860Z,26.16
2019-06-08T17:39:40.133Z,26.16
2019-06-08T17:42:11.432Z,26.05
2019-06-08T17:44:42.758Z,25.88
2019-06-08T17:47:14.076Z,25.85
2019-06-08T17:49:45.332Z,25.84
2019-06-08T17:52:16.507Z,25.69
2019-06-08T17:54:47.755Z,25.56
2019-06-08T17:57:18.918Z,25.45
2019-06-08T17:59:50.077Z,25.38
2019-06-08T18:02:27.983Z,25.31
2019-06-08T18:04:54.166Z,25.34
2019-06-08T18:07:27.622Z,25.31
2019-06-08T18:09:58.242Z,25.34
2019-06-08T18:12:29.411Z,25.22
2019-06-08T18:15:00.731Z,25.18
2019-06-08T18:17:32.223Z,25.22
2019-06-08T18:20:04.443Z,25.20
2019-06-08T18:22:39.083Z,25.09
2019-06-08T18:25:08.645Z,25.06
2019-06-08T18:27:42.389Z,25.03
2019-06-08T18:30:15.436Z,25.01
2019-06-08T18:32:48.524Z,25.02
2019-06-08T18:35:20.407Z,25.06
2019-06-08T18:37:52.987Z,24.85
2019-06-08T18:40:24.227Z,24.81
2019-06-08T18:42:57.677Z,24.67
2019-06-08T18:45:29.802Z,24.69
2019-06-08T18:48:00.993Z,24.74
2019-06-08T18:50:32.525Z,24.66
2019-06-08T18:53:03.688Z,24.58
2019-06-08T18:55:36.307Z,24.64
2019-06-08T18:58:17.617Z,24.65
2019-06-08T19:00:43.398Z,24.65
2019-06-08T19:03:14.491Z,24.53
2019-06-08T19:05:49.422Z,24.45
2019-06-08T19:08:19.478Z,24.41
2019-06-08T19:10:50.695Z,24.43
2019-06-08T19:13:21.858Z,24.29
2019-06-08T19:15:53.262Z,24.34
2019-06-08T19:18:24.552Z,24.26
2019-06-08T19:20:57.653Z,24.19
2019-06-08T19:23:28.624Z,24.28
2019-06-08T19:26:00.480Z,24.18
2019-06-08T19:28:36.367Z,24.08
2019-06-08T19:31:04.777Z,24.07
2019-06-08T19:33:35.955Z,24.03
2019-06-08T19:36:07.753Z,24.01
2019-06-08T19:38:40.045Z,23.89
2019-06-08T19:41:11.950Z,23.84
2019-06-08T19:43:43.622Z,23.70
2019-06-08T19:46:18.077Z,23.66
2019-06-08T19:48:54.572Z,23.57
2019-06-08T19:51:21.800Z,23.59
2019-06-08T19:53:54.961Z,23.42
2019-06-08T19:56:28.232Z,23.38
2019-06-08T19:59:03.984Z,23.23
2019-06-08T20:01:31.804Z,23.24
2019-06-08T20:04:07.270Z,23.14
2019-06-08T20:06:38.084Z,23.19
2019-06-08T20:09:09.670Z,23.12
2019-06-08T20:11:45.663Z,23.07
2019-06-08T20:14:13.845Z,22.97
2019-06-08T20:16:48.099Z,22.82
2019-06-08T20:19:18.332Z,22.86
2019-06-08T20:21:51.469Z,22.95
2019-06-08T20:24:22.409Z,22.91
2019-06-08T20:26:54.817Z,22.77
2019-06-08T20:29:28.332Z,22.77
2019-06-08T20:31:59.001Z,22.66
2019-06-08T20:34:30.178Z,22.75
2019-06-08T20:37:02.111Z,22.73
2019-06-08T20:39:33.315Z,22.83
2019-06-08T20:42:04.519Z,22.91
2019-06-08T20:44:37.667Z,22.90
2019-06-08T20:47:08.612Z,22.91
2019-06-08T20:49:39.734Z,22.77
2019-06-08T20:52:10.980Z,22.68
2019-06-08T20:54:42.754Z,22.81
2019-06-08T20:57:14.050Z,22.83
2019-06-08T20:59:45.669Z,22.84
2019-06-08T21:02:17.818Z,22.84
2019-06-08T21:04:53.125Z,22.80
2019-06-08T21:07:23.661Z,22.76
2019-06-08T21:09:57.490Z,22.72
2019-06-08T21:12:28.372Z,22.53
2019-06-08T21:14:59.631Z,22.53
2019-06-08T21:17:30.911Z,22.46
2019-06-08T21:20:02.125Z,22.41
2019-06-08T21:22:33.615Z,22.30
2019-06-08T21:25:08.716Z,22.10
2019-06-08T21:27:39.198Z,22.04
2019-06-08T21:30:20.592Z,22.14
2019-06-08T21:32:43.700Z,22.20
2019-06-08T21:35:14.924Z,22.10
2019-06-08T21:37:50.681Z,22.14
2019-06-08T21:40:19.099Z,22.15
2019-06-08T21:42:52.146Z,22.31
2019-06-08T21:45:23.153Z,22.35
2019-06-08T21:47:54.520Z,22.42
2019-06-08T21:50:27.553Z,22.49
2019-06-08T21:53:00.461Z,22.45
2019-06-08T21:55:31.795Z,22.40
2019-06-08T21:58:03.016Z,22.63
2019-06-08T22:00:40.578Z,22.52
2019-06-08T22:03:08.106Z,22.38
2019-06-08T22:05:39.485Z,22.26
2019-06-08T22:08:10.676Z,21.88
2019-06-08T22:10:41.925Z,21.58
2019-06-08T22:13:13.186Z,21.49
2019-06-08T22:15:44.610Z,21.09
2019-06-08T22:18:18.311Z,21.34
2019-06-08T22:20:48.865Z,21.10
2019-06-08T22:23:20.088Z,20.98
2019-06-08T22:25:52.443Z,20.89
2019-06-08T22:28:24.154Z,20.60
2019-06-08T22:30:57.775Z,20.47
2019-06-08T22:33:28.213Z,20.65
2019-06-08T22:35:59.341Z,20.71
2019-06-08T22:38:30.533Z,20.66
2019-06-08T22:41:02.349Z,20.78
2019-06-08T22:43:37.256Z,20.80
2019-06-08T22:46:08.355Z,20.63
2019-06-08T22:48:39.854Z,20.76
2019-06-08T22:51:11.067Z,20.57
2019-06-08T22:53:42.268Z,20.39
2019-06-08T22:56:13.432Z,20.34
2019-06-08T22:58:44.550Z,20.47
2019-06-08T23:01:18.184Z,20.48
2019-06-08T23:03:48.596Z,20.54
2019-06-08T23:06:20.632Z,20.59
2019-06-08T23:08:51.835Z,20.56
2019-06-08T23:11:23.048Z,20.61
2019-06-08T23:13:54.353Z,20.35
2019-06-08T23:16:27.266Z,20.26
2019-06-08T23:19:00.256Z,20.18
2019-06-08T23:21:31.435Z,20.30
2019-06-08T23:24:04.043Z,20.40
2019-06-08T23:26:37.164Z,20.40
2019-06-08T23:29:09.637Z,20.39
2019-06-08T23:31:40.955Z,20.45
2019-06-08T23:34:12.196Z,20.60
2019-06-08T23:36:57.531Z,20.64
2019-06-08T23:39:17.975Z,20.52
2019-06-08T23:41:49.248Z,20.69
2019-06-08T23:44:20.491Z,20.70
2019-06-08T23:46:51.657Z,20.76
2019-06-08T23:49:22.894Z,20.36
2019-06-08T23:51:54.034Z,20.43
2019-06-08T23:54:27.866Z,20.52
2019-06-08T23:56:58.537Z,20.41
2019-06-08T23:59:29.954Z,20.42
